Текущая Т° на юге МО

Полезные ссылки:
Метеоцентр.Азия - наш сайт с высокодетализированными прогнозами погоды по пунктам Pоссии и мира
Облегчённая версия Метеоклуба (для смартфонов)

Текущая Т° на юге МО

Сейчас в Метеоклубе:
Участников - 1 [ Date ]
Максимальное одновременное количество посетителей: 308 [2 Ноя 2013 22:42]
Гостей - 296 / Участников - 12

 - Начало - Ответить - Статистика - Pегистрация - Поиск -

МЕТЕОКЛУБ : независимое сообщество любителей метеорологии (Европа и Азия) : ФОРУМ О ПОГОДЕ И ПРИРОДЕ / Метеорологические приборы и методики наблюдений / Текущая Т° на юге МО
<< . 1 . 2 . 3 . 4 . 5 . 6 . 7 . 8 . 9 . 10 ... 53 . 54 . >>
Автор Сообщение
egrC
Участник

Россия Москва
# Дата: 2 Фев 2008 16:41 - Поправил: egrC


В Ка-Даре, http://meteoweb.ru/exp005.php метет поземка и ветер приличный 7 м/с. Порыв до 13 м/с.

В полночь по архиву станции +0,2*

Егор

Evgen
Участник

Шатура, восточное подмосковье
# Дата: 2 Фев 2008 16:51


Один градус может быть вообще на расстояниях порядка сотни метров, я тут где-то тут уже вроде писал про чудные колебания температуры до 2 градусов за несколько минут поздним вечером, в почти безветренную погоду. Оказалось достаточно банально - облака тумана тихонечно плыли куда-то. При этом идя пешком и проходя через такие облака буквально мордой лица чувствуется разность температур. Поскольку снаружи тоже был туман, но менее плотный - значит влажность воздуха тут роли не должна играть и там, и там по 100%. Да, скорость ветра в этом случае тоже лего оценить по "выдоху" - выдыхаешь возжух и смотришь куда пар за 1-2 секунды перемещается. В том случае было не более 1 метра/сек.

LESS
Участник

Приокский лесс на юге МО
# Дата: 2 Фев 2008 19:09


Evgen

В том то и дело! Может быть, орография в пойме Оки влияет на Твозд именно таким образом, что там чаще, чем на метеостанциях (ГМЦ в МО) такие естественные источники тепла, как описанный Вами туман, наплывают ("натекают" и др.глаголы, связанные с адвекцией в миниатюре) на мини-метеостанцию!

artur
Участник

# Дата: 2 Фев 2008 20:06 - Поправил: artur


Мы тоже живём недалеко от Оки, но у меня был противоположный случай: в 14 декабря прошлого года вечером была малооблачная погода, Т -11. Внезапно с юга (получается, что вдоль Оки) наплыл туман, и температура за 2 часа упала до -14. Когда туман начал рассеиваться, температура подналась на 0,5 и далее оставалась стабильной, небо оставалось малооблачным. С чем это связано, почему туман вызвал падение температуры?

LESS
Участник

Приокский лесс на юге МО
# Дата: 2 Фев 2008 20:26


artur

Может тут уместно говорить о Тсмоченного термометра (туман же влажный)? Упало до точки росы... (хотя, хм, туман и есть "точка росы").

Что-то, связанное с затратами энергии на пар в воздухе (остывание).

Observer
Участник

Россия
# Дата: 2 Фев 2008 20:53


egrC

В Ка-Даре, http://meteoweb.ru/exp005.php метет поземка и ветер приличный 7 м/с. Порыв до 13 м/с.

Поземок сегодня многие метеостанции Рязанской области отмечали. А в районе "Ка-Дара" запомнилось снежное "пятно" на дороге, нанесенное сюда ветром. (Сегодня с Егором заезжал в "Ка-Дар") ;)

LESS
Участник

Приокский лесс на юге МО
# Дата: 2 Фев 2008 21:15


Observer

Да, у нас тут таких поземных перемётов на дорогах в поле тоже сейчас немало.

Doof
Участник

МО. Тучково
# Дата: 2 Фев 2008 22:01


LESS
Один градус можно смело в градиент закладывать на таких расстояниях, Вы как считаете?

Это нормально, но вот когда на градус-другой выше, чем в Серпухове, Коломне и вообще где-либо в окрестности радиусом 100 км, тогда уже проблемы.

egrC
Участник

Россия Москва
# Дата: 2 Фев 2008 22:12


Observer
А в районе "Ка-Дара" запомнилось снежное "пятно" на дороге, нанесенное сюда ветром. (Сегодня с Егором заезжал в "Ка-Дар") ;)

Вообрази перед твоим отездом порыв был в 16,4 м/с. Вот.

Егор

LESS
Участник

Приокский лесс на юге МО
# Дата: 2 Фев 2008 22:23


Doof


Это нормально, но вот когда на градус-другой выше, чем в Серпухове, Коломне и вообще где-либо в окрестности радиусом 100 км, тогда уже проблемы.


Да, тот момент меня тоже весьма удивил. И всё-таки попрошу согласиться, что плотность метеостанций на данном участке (да и в регионе вцелом) критически мала!

LESS
Участник

Приокский лесс на юге МО
# Дата: 5 Фев 2008 11:52 - Поправил: LESS


Посмотрел данные на своих датчиках Твозд за минувшую ночь. Прекрасная корреляция с данным метеостанции г.Серпухова.

Офф топик.

Мише.

Сегодня второй день принятия мною солнечных ванн. Но от вчерашнего дня есть одно чудесное отличие: сегодня штиль!

Так что можно будет и окошко в отапливаемой кабинке приоткрыть.

Посмотрел на свою физиономию в зеркало: загар ложится ровно. Так что можно сэкономить на Сейшелах, Мальдивах и солярии (ни там, ни там ни разу не был).

LESS
Участник

Приокский лесс на юге МО
# Дата: 5 Фев 2008 23:24


Doof

Это нормально, но вот когда на градус-другой выше, чем в Серпухове, Коломне и вообще где-либо в окрестности радиусом 100 км, тогда уже проблемы.

Хорошо, вот смотрим что у нас сегодня в Коломне и в Серпухове по Тмакс (вообще, это параметр более справедливый, ибо Твозд постоянно колеблется, и брать её точно за тот или иной час означает не учитывать амплитуду этих колебаний: "стряхиваемый раз в сутки" градусник, измеряющий на метеостанции Тмакс и Тмин устраняет эту проблему дискретности измерений метеопараметра):

(благо метеосутки на сегодня уже окончились в 21:00 МСК)

Коломна Тмакс (05.02.2008) +2.1* С
Серпухов Тмакс (05.02.2008) -0.7* С

И это при штиле (либо ветре не более 2 м\с) и приблизительно одинаковой облачности над метеопунктами по срокам.

Разброс почти в 3* С! Наводит на мысли...

Doof
Участник

МО. Тучково
# Дата: 6 Фев 2008 00:20


LESS

Смотрим дальше Tmax...

Наро-Фоминск -1°
Можайск -1.6°
Волоколамск -1.1°

А вот восток области:

П-Посад +1.6°
Черусти +0.9°

Налицо разница по Tmax между западной и восточной половиной, связанная например с наличием облачности и ослабленным прогревом.
Тут нельзя смотреть только два пункта, надо комплексно анализировать.

LESS
Участник

Приокский лесс на юге МО
# Дата: 11 Мар 2008 19:11


Сегодня у нас не "ноль", и не "вокруг нуля"!!!!

У нас сегодня "ноль плюс-минус одна десятая градуса"...

Вот данные по срокам для метеостанции г.Серпухова:

http://www.rp5.ru/archive.php?wmo_id=27618

09:00 -0.1* С

12:00 +0.1* С

15:00 +0.1* С

18:00 +0.1* С

Температура воздуха "зависла"...

LESS
Участник

Приокский лесс на юге МО
# Дата: 31 Мар 2008 17:11


UUDD 311230Z 04003MPS 010V130 CAVOK 09/M10 Q1029 NOSIG 14010060=
UUDD 311200Z 02003MPS CAVOK 09/M11 Q1029 NOSIG 14010060=
UUDD 311130Z 03004MPS 010V110 CAVOK 08/M11 Q1030 NOSIG 14010060=
UUDD 311100Z 06003MPS 010V160 CAVOK 08/M09 Q1030 NOSIG 14010060=
UUDD 311030Z 03003MPS 010V090 CAVOK 08/M08 Q1030 NOSIG 14010060=
UUDD 311000Z 04003MPS 010V090 CAVOK 07/M09 Q1030 NOSIG 14010060=
UUDD 310930Z VRB04MPS CAVOK 07/M07 Q1031 NOSIG 14010060=
UUDD 310900Z 03003MPS 010V110 CAVOK 06/M09 Q1031 NOSIG 14010060=
UUDD 310830Z VRB03MPS CAVOK 06/M07 Q1031 NOSIG 14010060=
UUDD 310800Z 04003MPS 010V090 CAVOK 05/M07 Q1031 NOSIG 14010060=
UUDD 310730Z 10003MPS 070V140 CAVOK 04/M07 Q1031 NOSIG 82010060=
UUDD 310700Z 03001MPS CAVOK 04/M06 Q1032 NOSIG 32010060 82010060=
UUDD 310630Z 02001MPS CAVOK 02/M06 Q1032 NOSIG 32010060 82010060=
UUDD 310600Z 04001MPS CAVOK 01/M05 Q1032 NOSIG 32010060 82010060=
UUDD 310530Z 05001MPS CAVOK 00/M05 Q1032 NOSIG 32010060 82010060=
UUDD 310500Z 04001MPS CAVOK M00/M06 Q1032 NOSIG 32010060 82010060=
UUDD 310430Z 04001MPS CAVOK M01/M06 Q1031 NOSIG 32010060 82010060=
UUDD 310400Z 05001MPS CAVOK M01/M06 Q1031 NOSIG 32010060 82010060=
UUDD 310330Z 05001MPS CAVOK M02/M06 Q1031 NOSIG 32010060 82010060=
__________________________________________________ ______________

Сорри, привожу текст МЕТАР без сокращений.

Это за сегодня. По "Домодедово". С семи утра.

Если не ошибаюсь, через дробь идёт значение Твозд\Тросы!

Они там что, приборов не видят! Какие минус девять! У нас тут скоро грибы пойдут, такая жара сегодня, Тросы уже с полудня (как минимум) положительная !!!

Есть с метеорологами "Домодедово" обратная связь? Как им сообщить об ошибке?

egrC
Участник

Россия Москва
# Дата: 31 Мар 2008 18:47


LESS
Да вроде все верно у них в Домодедово http://wxweb.meteostar.com/cgi-bin/meteogram/meteo gram_celcius.cgi?UUDD

У меня в Ка-Даре примерно тоже http://meteoweb.ru/exp005-2.php точка росы -10,7* - весна однако, к тому ветер с северо-востака, сухой.

Егор

Shadow
Участник

Санкт-Петербург
# Дата: 31 Мар 2008 18:52


LESS
Да, похоже все нормально- во Внуково тоже Тd = -9 C, -10 C.

LESS
Участник

Приокский лесс на юге МО
# Дата: 31 Мар 2008 21:15


egrC
Shadow

Нет, всё равно ничего не понимаю. Почему же тогда на метеостанции в г.Серпухове в час дня Тросы составила +1.1* С, а в четыре часа дня составила +0.2* С (ссылка здесь: http://www.rp5.ru/archive.php?wmo_id=27618), а в "Домодедово" при этом по всем срокам выше -06* С не поднималась (а так всё -7...-10* С)!

Мы что, в другом климатическом поясе с соедними Барыбино и Домодедово (50 км) ???!!!

Тогда понятно, почему у нас тут снег весь дотла давно растаял и дело снова к засухе идёт...

Вот это градиент!

egrC
Участник

Россия Москва
# Дата: 31 Мар 2008 23:13


LESS
У вас так Ока... и все прочее, так что климат свой...

Егор

LESS
Участник

Приокский лесс на юге МО
# Дата: 31 Мар 2008 23:40


egrC

Похоже, здесь важен СП и Тпочвы. Мы прогрелись не по-детски и впереди области всей.

Этим летом всё живое в наших краях снова иссушит "новый" климат ЕТР...

egrC
Участник

Россия Москва
# Дата: 1 Апр 2008 21:23


LESS
Возможно... и засуха будет... Я вот тут небольшое исследование провел - http://meteoweb.ru/eas011.php , так что и засуха может статься в регионе.

Сегодня дотянули в Ка-Даре, по крайней мере, до +11,2*С http://meteoweb.ru/exp005-2.php

LESS
Участник

Приокский лесс на юге МО
# Дата: 5 Апр 2008 08:42


Вот данные МЕТАР по "Домодедово" за сегодня.

Давно я такой "ровной картины в столбик" и них не видел. Как в пустыне...
__________________________________________________ _____________

UUDD 050300Z 07001MPS CAVOK 07/02 Q1011 NOSIG 64010070 14010070=
UUDD 050230Z 05001MPS CAVOK 07/02 Q1011 NOSIG 64010070 14010070=
UUDD 050200Z 01002MPS CAVOK 07/03 Q1011 NOSIG 64010070 14010070=
UUDD 050130Z 00000MPS CAVOK 07/02 Q1010 NOSIG 64010070 14010070=
UUDD 050100Z 04001MPS CAVOK 08/02 Q1010 NOSIG 64010070 14010070=
UUDD 050030Z 00000MPS CAVOK 07/03 Q1011 NOSIG 64010070 14010070=
UUDD 050000Z 01001MPS CAVOK 08/01 Q1011 NOSIG 64010070 14010070=
UUDD 042330Z 05001MPS CAVOK 08/02 Q1011 NOSIG 64010070 14010070=
UUDD 042300Z 36002MPS CAVOK 08/03 Q1011 NOSIG 64010070 14010070=
UUDD 042230Z 00000MPS CAVOK 08/02 Q1011 NOSIG 64010070 14010070=
UUDD 042200Z 05001MPS CAVOK 08/03 Q1011 NOSIG 64010070 14010070=
UUDD 042130Z 03001MPS CAVOK 08/03 Q1011 NOSIG 64010070 14010070=
UUDD 042100Z 11002MPS CAVOK 09/02 Q1011 NOSIG 64010070 14010070=
UUDD 042030Z 13002MPS CAVOK 09/02 Q1011 NOSIG 64010070 14010070=
UUDD 042000Z 15003MPS CAVOK 10/01 Q1011 NOSIG 64010070 14010070=
UUDD 041930Z 13003MPS CAVOK 10/01 Q1011 NOSIG 64010070 14010070=
UUDD 041900Z 09002MPS CAVOK 11/00 Q1011 NOSIG 64010070 14010070=
UUDD 041830Z 08003MPS CAVOK 11/00 Q1011 NOSIG 64010070 14010070=
UUDD 041800Z 11003MPS CAVOK 12/00 Q1011 NOSIG 64010070 14010070=
UUDD 041730Z 12003MPS CAVOK 12/00 Q1011 NOSIG 64010070 14010070=
UUDD 041700Z 12003MPS CAVOK 13/00 Q1011 NOSIG 64010070 14010070=
UUDD 041630Z 12003MPS CAVOK 13/00 Q1011 NOSIG 64010070 14010070=
UUDD 041600Z 12004MPS CAVOK 14/00 Q1011 NOSIG 64010070 14010070=
UUDD 041530Z 13004MPS CAVOK 15/01 Q1011 NOSIG 64010070 14010070=
UUDD 041500Z 13003MPS CAVOK 15/01 Q1011 NOSIG 64010070 14010070=

LESS
Участник

Приокский лесс на юге МО
# Дата: 28 Май 2008 15:21


Shadow

На тему мезоклимата.

Посмотрите метеоархив по МО за минувшую ночь (во Твозд минимальной).

Можно, например, вот по этой ссылке http://meteo.rhm.ru/mo/mo.php

Серпухов - абсолютный лидер за минувшую ночь.

Как всегда, удивили "прохладные" Черусти.

ded
Участник

наро-фоМИНСК
# Дата: 28 Май 2008 20:05


LESS
Можно Спилбергу снимать очередной ужастик, под названием "Черусти".

ded
Участник

наро-фоМИНСК
# Дата: 17 Jun 2008 07:42


LESS
Этим летом всё живое в наших краях снова иссушит "новый" климат ЕТР...
День 16 + ночь 17 июня = 32 мм в Серпухове. Это, конечно не Айова, но существенно.

LESS
Участник

Приокский лесс на юге МО
# Дата: 17 Jun 2008 09:45


ded

Так ненарадуемся! Кстати, объективный Мистер Икс, полагаю, поделится на страницах форума своими впечатлениями о наших краях. Они показались ему чрезмерзно засушливыми на фоне остальной части МО!

Осадки неравномерно распределены даже на небольной территории. У нас вот только сейчас в 8:25 ливень начался. Хороший такой ливень! Поплавали! Но короткий. И пока на этом всё. Мигом всё высохнет. Такой уж у нас здесь микроклимат! Не болота и не сырые ельники....

Shadow
Участник

Санкт-Петербург
# Дата: 17 Jun 2008 11:41


LESS
А в Москве почти не было сегодня осадков- только немного утром дождик покапал.

LESS
Участник

Приокский лесс на юге МО
# Дата: 17 Jun 2008 12:01


Shadow

А в Москве почти не было сегодня осадков- только немного утром дождик покапал.

Да, градиент тот ещё (в плане выпадения атм.осадков)! Какие-то 80-100 км, и такая разница.

egrC
Участник

Россия Москва
# Дата: 17 Jun 2008 20:30 - Поправил: egrC


LESS
В Ка-Даре за сутки выпало 2 мм, немного - ночь и утром 1,5 мм, днем еще 0,5 мм. http://meteoweb.ru/exp005-2.php

Егор.

slava31
Участник

Монино
# Дата: 17 Jun 2008 20:38 - Поправил: slava31


egrC
В Ка-Даре за сутки выпало 2 мм
да как же так,я проезжал Барыбино сегодня утром-лужи непролазные или они возникли за предыдущие сутки?

<< . 1 . 2 . 3 . 4 . 5 . 6 . 7 . 8 . 9 . 10 ... 53 . 54 . >>
Ваш ответ

          Отменить *Что это?

 » Логин  » Пароль 
 
 


Поддержка: miniBB forum software © 2001-2024